sensor_id;sensor_type;location;lat;lon;timestamp;pressure;altitude;pressure_sealevel;temperature;humidity
61554;BME280;47425;51.976;5.326;2023-03-20T00:01:32;101816.63;;;16.95;50.19
61554;BME280;47425;51.976;5.326;2023-03-20T00:03:59;101813.75;;;17.01;49.37
61554;BME280;47425;51.976;5.326;2023-03-20T00:06:26;101820.19;;;16.94;49.64
61554;BME280;47425;51.976;5.326;2023-03-20T00:08:55;101826.16;;;17.01;49.73
61554;BME280;47425;51.976;5.326;2023-03-20T00:11:27;101823.22;;;17.10;49.79
61554;BME280;47425;51.976;5.326;2023-03-20T00:13:55;101813.41;;;17.14;49.09
61554;BME280;47425;51.976;5.326;2023-03-20T00:16:22;101814.34;;;17.11;49.46
61554;BME280;47425;51.976;5.326;2023-03-20T00:18:50;101804.63;;;17.11;49.16
61554;BME280;47425;51.976;5.326;2023-03-20T00:21:17;101805.41;;;17.15;49.28
61554;BME280;47425;51.976;5.326;2023-03-20T00:23:44;101806.19;;;17.17;49.32
61554;BME280;47425;51.976;5.326;2023-03-20T00:26:13;101805.91;;;17.26;49.27
61554;BME280;47425;51.976;5.326;2023-03-20T00:28:45;101796.84;;;17.34;48.97
61554;BME280;47425;51.976;5.326;2023-03-20T00:31:19;101794.94;;;17.37;48.91
61554;BME280;47425;51.976;5.326;2023-03-20T00:33:48;101792.34;;;17.36;48.03
61554;BME280;47425;51.976;5.326;2023-03-20T00:36:16;101785.59;;;17.27;48.88
61554;BME280;47425;51.976;5.326;2023-03-20T00:38:42;101788.84;;;17.35;48.83
61554;BME280;47425;51.976;5.326;2023-03-20T00:41:11;101791.94;;;17.48;48.81
61554;BME280;47425;51.976;5.326;2023-03-20T00:43:46;101799.63;;;17.56;48.41
61554;BME280;47425;51.976;5.326;2023-03-20T00:46:13;101805.53;;;17.64;48.45
61554;BME280;47425;51.976;5.326;2023-03-20T00:48:40;101812.88;;;17.56;48.04
61554;BME280;47425;51.976;5.326;2023-03-20T00:51:07;101809.72;;;17.44;48.29
61554;BME280;47425;51.976;5.326;2023-03-20T00:53:35;101830.03;;;17.44;48.06
61554;BME280;47425;51.976;5.326;2023-03-20T00:56:02;101831.31;;;17.32;48.64
61554;BME280;47425;51.976;5.326;2023-03-20T00:58:28;101832.31;;;17.28;48.08
61554;BME280;47425;51.976;5.326;2023-03-20T01:00:57;101837.25;;;17.12;48.75
61554;BME280;47425;51.976;5.326;2023-03-20T01:03:24;101826.97;;;17.03;48.32
61554;BME280;47425;51.976;5.326;2023-03-20T01:05:51;101830.59;;;17.00;48.11
61554;BME280;47425;51.976;5.326;2023-03-20T01:08:18;101850.13;;;16.96;48.78
61554;BME280;47425;51.976;5.326;2023-03-20T01:10:48;101850.13;;;16.94;48.65
61554;BME280;47425;51.976;5.326;2023-03-20T01:13:19;101843.09;;;16.95;48.76
61554;BME280;47425;51.976;5.326;2023-03-20T01:15:46;101839.22;;;17.05;49.06
61554;BME280;47425;51.976;5.326;2023-03-20T01:18:15;101838.91;;;17.16;48.97
61554;BME280;47425;51.976;5.326;2023-03-20T01:20:43;101832.25;;;17.30;48.36
61554;BME280;47425;51.976;5.326;2023-03-20T01:23:10;101841.88;;;17.32;48.79
61554;BME280;47425;51.976;5.326;2023-03-20T01:25:37;101834.41;;;17.45;48.45
61554;BME280;47425;51.976;5.326;2023-03-20T01:28:10;101831.53;;;17.53;48.48
61554;BME280;47425;51.976;5.326;2023-03-20T01:30:40;101831.97;;;17.39;48.31
61554;BME280;47425;51.976;5.326;2023-03-20T01:33:10;101827.50;;;17.41;48.26
61554;BME280;47425;51.976;5.326;2023-03-20T01:35:38;101832.75;;;17.42;48.49
61554;BME280;47425;51.976;5.326;2023-03-20T01:38:09;101836.97;;;17.48;47.79
61554;BME280;47425;51.976;5.326;2023-03-20T01:40:40;101836.75;;;17.27;47.81
61554;BME280;47425;51.976;5.326;2023-03-20T01:43:12;101835.94;;;17.25;48.20
61554;BME280;47425;51.976;5.326;2023-03-20T01:45:45;101817.97;;;17.08;48.27
61554;BME280;47425;51.976;5.326;2023-03-20T01:48:15;101834.53;;;17.15;48.84
61554;BME280;47425;51.976;5.326;2023-03-20T01:50:44;101830.84;;;17.19;48.30
61554;BME280;47425;51.976;5.326;2023-03-20T01:53:14;101830.38;;;17.06;48.31
61554;BME280;47425;51.976;5.326;2023-03-20T01:56:03;101828.50;;;17.10;48.90
61554;BME280;47425;51.976;5.326;2023-03-20T01:58:40;101814.81;;;17.24;48.85
61554;BME280;47425;51.976;5.326;2023-03-20T02:01:10;101812.63;;;17.37;48.78
61554;BME280;47425;51.976;5.326;2023-03-20T02:03:42;101818.34;;;17.51;48.50
61554;BME280;47425;51.976;5.326;2023-03-20T02:06:41;101847.16;;;17.60;47.97
61554;BME280;47425;51.976;5.326;2023-03-20T02:09:14;101830.31;;;17.61;47.70
61554;BME280;47425;51.976;5.326;2023-03-20T02:11:44;101836.50;;;17.62;47.99
61554;BME280;47425;51.976;5.326;2023-03-20T02:14:11;101835.38;;;17.69;47.65
61554;BME280;47425;51.976;5.326;2023-03-20T02:17:07;101838.94;;;17.68;47.75
61554;BME280;47425;51.976;5.326;2023-03-20T02:19:43;101837.88;;;17.74;47.56
61554;BME280;47425;51.976;5.326;2023-03-20T02:22:21;101840.56;;;17.72;47.82
61554;BME280;47425;51.976;5.326;2023-03-20T02:24:56;101832.84;;;17.66;47.78
61554;BME280;47425;51.976;5.326;2023-03-20T02:27:29;101827.47;;;17.68;47.83
61554;BME280;47425;51.976;5.326;2023-03-20T02:30:09;101811.38;;;17.74;47.53
61554;BME280;47425;51.976;5.326;2023-03-20T02:32:51;101809.41;;;17.79;47.55
61554;BME280;47425;51.976;5.326;2023-03-20T02:35:36;101800.50;;;17.82;47.43
61554;BME280;47425;51.976;5.326;2023-03-20T02:38:15;101799.63;;;17.81;47.75
61554;BME280;47425;51.976;5.326;2023-03-20T02:40:49;101800.44;;;17.83;47.69
61554;BME280;47425;51.976;5.326;2023-03-20T02:43:21;101812.81;;;17.83;46.96
61554;BME280;47425;51.976;5.326;2023-03-20T02:45:52;101814.81;;;17.76;47.43
61554;BME280;47425;51.976;5.326;2023-03-20T02:48:26;101810.34;;;17.78;47.79
61554;BME280;47425;51.976;5.326;2023-03-20T02:50:58;101804.16;;;17.77;47.62
61554;BME280;47425;51.976;5.326;2023-03-20T02:53:34;101811.97;;;17.82;47.47
61554;BME280;47425;51.976;5.326;2023-03-20T02:56:06;101807.53;;;17.83;47.57
61554;BME280;47425;51.976;5.326;2023-03-20T02:58:38;101802.22;;;17.83;47.29
61554;BME280;47425;51.976;5.326;2023-03-20T03:01:10;101792.53;;;17.82;47.51
61554;BME280;47425;51.976;5.326;2023-03-20T03:03:43;101766.97;;;17.81;47.42
61554;BME280;47425;51.976;5.326;2023-03-20T03:06:11;101755.44;;;17.82;47.41
61554;BME280;47425;51.976;5.326;2023-03-20T03:08:43;101756.41;;;17.79;47.50
61554;BME280;47425;51.976;5.326;2023-03-20T03:11:12;101762.59;;;17.80;47.59
61554;BME280;47425;51.976;5.326;2023-03-20T03:13:41;101751.13;;;17.79;47.54
61554;BME280;47425;51.976;5.326;2023-03-20T03:16:11;101766.97;;;17.81;47.54
61554;BME280;47425;51.976;5.326;2023-03-20T03:18:39;101765.06;;;17.84;47.19
61554;BME280;47425;51.976;5.326;2023-03-20T03:21:09;101774.75;;;17.85;47.01
61554;BME280;47425;51.976;5.326;2023-03-20T03:23:39;101770.63;;;17.78;47.33
61554;BME280;47425;51.976;5.326;2023-03-20T03:26:09;101764.44;;;17.77;47.29
61554;BME280;47425;51.976;5.326;2023-03-20T03:28:39;101768.75;;;17.80;47.49
61554;BME280;47425;51.976;5.326;2023-03-20T03:31:07;101767.78;;;17.83;47.46
61554;BME280;47425;51.976;5.326;2023-03-20T03:33:37;101767.72;;;17.84;47.17
61554;BME280;47425;51.976;5.326;2023-03-20T03:36:08;101768.63;;;17.83;47.18
61554;BME280;47425;51.976;5.326;2023-03-20T03:38:39;101761.56;;;17.84;47.46
61554;BME280;47425;51.976;5.326;2023-03-20T03:41:16;101760.69;;;17.83;47.38
61554;BME280;47425;51.976;5.326;2023-03-20T03:43:47;101750.06;;;17.85;47.28
61554;BME280;47425;51.976;5.326;2023-03-20T03:46:18;101754.47;;;17.84;47.17
61554;BME280;47425;51.976;5.326;2023-03-20T03:48:53;101755.56;;;17.78;47.18
61554;BME280;47425;51.976;5.326;2023-03-20T03:51:22;101758.22;;;17.78;47.29
61554;BME280;47425;51.976;5.326;2023-03-20T03:54:02;101758.16;;;17.80;47.38
61554;BME280;47425;51.976;5.326;2023-03-20T03:56:33;101751.94;;;17.81;47.49
61554;BME280;47425;51.976;5.326;2023-03-20T03:59:01;101745.72;;;17.82;47.26
61554;BME280;47425;51.976;5.326;2023-03-20T04:01:30;101734.31;;;17.80;47.33
61554;BME280;47425;51.976;5.326;2023-03-20T04:03:59;101731.72;;;17.78;47.09
61554;BME280;47425;51.976;5.326;2023-03-20T04:06:28;101728.94;;;17.82;47.35
61554;BME280;47425;51.976;5.326;2023-03-20T04:08:54;101733.91;;;17.67;46.60
61554;BME280;47425;51.976;5.326;2023-03-20T04:11:23;101721.00;;;17.58;47.49
61554;BME280;47425;51.976;5.326;2023-03-20T04:13:51;101720.88;;;17.61;47.69
61554;BME280;47425;51.976;5.326;2023-03-20T04:16:19;101719.00;;;17.65;47.36
61554;BME280;47425;51.976;5.326;2023-03-20T04:18:48;101727.66;;;17.68;47.43
61554;BME280;47425;51.976;5.326;2023-03-20T04:21:15;101716.22;;;17.68;47.02
61554;BME280;47425;51.976;5.326;2023-03-20T04:23:42;101712.88;;;17.63;47.45
61554;BME280;47425;51.976;5.326;2023-03-20T04:26:09;101716.34;;;17.65;47.44
61554;BME280;47425;51.976;5.326;2023-03-20T04:28:37;101716.22;;;17.68;47.39
61554;BME280;47425;51.976;5.326;2023-03-20T04:31:31;101708.28;;;17.68;47.31
61554;BME280;47425;51.976;5.326;2023-03-20T04:34:08;101705.56;;;17.69;47.36
61554;BME280;47425;51.976;5.326;2023-03-20T04:37:03;101717.97;;;17.69;47.22
61554;BME280;47425;51.976;5.326;2023-03-20T04:40:09;101718.75;;;17.71;47.17
61554;BME280;47425;51.976;5.326;2023-03-20T04:42:40;101724.97;;;17.70;47.18
61554;BME280;47425;51.976;5.326;2023-03-20T04:45:07;101722.38;;;17.68;47.04
61554;BME280;47425;51.976;5.326;2023-03-20T04:47:37;101727.59;;;17.71;47.10
61554;BME280;47425;51.976;5.326;2023-03-20T04:50:05;101728.50;;;17.70;47.03
61554;BME280;47425;51.976;5.326;2023-03-20T04:52:33;101726.16;;;17.61;47.17
61554;BME280;47425;51.976;5.326;2023-03-20T04:55:00;101721.00;;;17.58;47.30
61554;BME280;47425;51.976;5.326;2023-03-20T04:57:27;101722.69;;;17.59;47.42
61554;BME280;47425;51.976;5.326;2023-03-20T04:59:57;101718.34;;;17.58;47.14
61554;BME280;47425;51.976;5.326;2023-03-20T05:02:24;101722.75;;;17.57;47.27
61554;BME280;47425;51.976;5.326;2023-03-20T05:04:53;101714.75;;;17.59;47.46
61554;BME280;47425;51.976;5.326;2023-03-20T05:07:19;101714.53;;;17.65;47.04
61554;BME280;47425;51.976;5.326;2023-03-20T05:09:52;101715.69;;;17.58;46.92
61554;BME280;47425;51.976;5.326;2023-03-20T05:12:22;101713.97;;;17.57;47.08
61554;BME280;47425;51.976;5.326;2023-03-20T05:15:15;101708.47;;;17.61;46.54
61554;BME280;47425;51.976;5.326;2023-03-20T05:18:12;101705.25;;;17.53;47.12
61554;BME280;47425;51.976;5.326;2023-03-20T05:21:00;101706.06;;;17.55;47.17
61554;BME280;47425;51.976;5.326;2023-03-20T05:23:47;101705.91;;;17.60;46.86
61554;BME280;47425;51.976;5.326;2023-03-20T05:26:35;101707.56;;;17.63;46.94
61554;BME280;47425;51.976;5.326;2023-03-20T05:29:29;101711.38;;;17.55;46.91
61554;BME280;47425;51.976;5.326;2023-03-20T05:32:15;101706.06;;;17.55;46.92
61554;BME280;47425;51.976;5.326;2023-03-20T05:34:58;101719.13;;;17.60;47.40
61554;BME280;47425;51.976;5.326;2023-03-20T05:37:45;101715.63;;;17.59;47.80
61554;BME280;47425;51.976;5.326;2023-03-20T05:40:32;101714.88;;;17.56;47.65
61554;BME280;47425;51.976;5.326;2023-03-20T05:43:16;101714.94;;;17.54;47.54
61554;BME280;47425;51.976;5.326;2023-03-20T05:46:03;101713.03;;;17.58;47.85
61554;BME280;47425;51.976;5.326;2023-03-20T05:48:30;101712.94;;;17.61;48.10
61554;BME280;47425;51.976;5.326;2023-03-20T05:51:26;101720.81;;;17.63;48.09
61554;BME280;47425;51.976;5.326;2023-03-20T05:54:03;101729.66;;;17.61;47.93
61554;BME280;47425;51.976;5.326;2023-03-20T05:56:56;101721.19;;;17.52;48.49
61554;BME280;47425;51.976;5.326;2023-03-20T05:59:31;101729.97;;;17.54;48.46
61554;BME280;47425;51.976;5.326;2023-03-20T06:02:24;101736.19;;;17.53;48.42
61554;BME280;47425;51.976;5.326;2023-03-20T06:05:02;101746.53;;;17.59;48.21
61554;BME280;47425;51.976;5.326;2023-03-20T06:07:38;101748.16;;;17.63;48.16
61554;BME280;47425;51.976;5.326;2023-03-20T06:10:12;101742.72;;;17.68;48.18
61554;BME280;47425;51.976;5.326;2023-03-20T06:12:40;101741.88;;;17.66;48.12
61554;BME280;47425;51.976;5.326;2023-03-20T06:15:07;101741.84;;;17.67;48.54
61554;BME280;47425;51.976;5.326;2023-03-20T06:17:39;101743.50;;;17.70;48.01
61554;BME280;47425;51.976;5.326;2023-03-20T06:20:06;101746.16;;;17.70;47.90
61554;BME280;47425;51.976;5.326;2023-03-20T06:22:35;101742.78;;;17.66;48.03
61554;BME280;47425;51.976;5.326;2023-03-20T06:25:02;101737.47;;;17.66;48.25
61554;BME280;47425;51.976;5.326;2023-03-20T06:27:39;101744.44;;;17.69;47.97
61554;BME280;47425;51.976;5.326;2023-03-20T06:30:05;101748.13;;;17.65;48.16
61554;BME280;47425;51.976;5.326;2023-03-20T06:32:35;101752.44;;;17.67;48.06
61554;BME280;47425;51.976;5.326;2023-03-20T06:35:04;101748.97;;;17.65;48.08
61554;BME280;47425;51.976;5.326;2023-03-20T06:37:33;101753.38;;;17.66;48.05
61554;BME280;47425;51.976;5.326;2023-03-20T06:40:05;101758.53;;;17.69;48.02
61554;BME280;47425;51.976;5.326;2023-03-20T06:42:34;101761.31;;;17.66;48.12
61554;BME280;47425;51.976;5.326;2023-03-20T06:45:03;101754.91;;;17.72;47.95
61554;BME280;47425;51.976;5.326;2023-03-20T06:47:40;101761.13;;;17.71;47.92
61554;BME280;47425;51.976;5.326;2023-03-20T06:50:08;101766.50;;;17.69;47.79
61554;BME280;47425;51.976;5.326;2023-03-20T06:52:35;101775.41;;;17.67;47.85
61554;BME280;47425;51.976;5.326;2023-03-20T06:55:19;101766.59;;;17.66;47.80
61554;BME280;47425;51.976;5.326;2023-03-20T06:57:46;101772.69;;;17.68;48.06
61554;BME280;47425;51.976;5.326;2023-03-20T07:00:17;101770.34;;;17.60;48.09
61554;BME280;47425;51.976;5.326;2023-03-20T07:03:05;101771.25;;;17.59;48.03
61554;BME280;47425;51.976;5.326;2023-03-20T07:05:32;101766.66;;;17.65;47.88
61554;BME280;47425;51.976;5.326;2023-03-20T07:08:02;101754.44;;;17.60;47.50
61554;BME280;47425;51.976;5.326;2023-03-20T07:10:30;101771.84;;;17.68;47.70
61554;BME280;47425;51.976;5.326;2023-03-20T07:12:57;101771.00;;;17.67;47.64
61554;BME280;47425;51.976;5.326;2023-03-20T07:15:25;101767.34;;;17.70;47.50
61554;BME280;47425;51.976;5.326;2023-03-20T07:17:55;101768.16;;;17.72;47.16
61554;BME280;47425;51.976;5.326;2023-03-20T07:20:24;101775.19;;;17.73;47.39
61554;BME280;47425;51.976;5.326;2023-03-20T07:22:51;101772.63;;;17.71;47.47
61554;BME280;47425;51.976;5.326;2023-03-20T07:25:22;101782.13;;;17.77;47.24
61554;BME280;47425;51.976;5.326;2023-03-20T07:27:49;101778.72;;;17.73;47.19
61554;BME280;47425;51.976;5.326;2023-03-20T07:30:19;101776.06;;;17.73;47.40
61554;BME280;47425;51.976;5.326;2023-03-20T07:32:48;101781.22;;;17.76;47.23
61554;BME280;47425;51.976;5.326;2023-03-20T07:35:15;101783.88;;;17.76;46.88
61554;BME280;47425;51.976;5.326;2023-03-20T07:37:44;101777.84;;;17.73;47.13
61554;BME280;47425;51.976;5.326;2023-03-20T07:40:11;101780.59;;;17.70;46.73
61554;BME280;47425;51.976;5.326;2023-03-20T07:42:45;101781.72;;;17.63;47.17
61554;BME280;47425;51.976;5.326;2023-03-20T07:45:33;101778.28;;;17.60;47.22
61554;BME280;47425;51.976;5.326;2023-03-20T07:48:02;101776.28;;;17.67;47.28
61554;BME280;47425;51.976;5.326;2023-03-20T07:50:28;101771.97;;;17.65;47.07
61554;BME280;47425;51.976;5.326;2023-03-20T07:52:55;101775.34;;;17.68;46.90
61554;BME280;47425;51.976;5.326;2023-03-20T07:55:23;101773.47;;;17.72;47.12
61554;BME280;47425;51.976;5.326;2023-03-20T07:57:49;101769.09;;;17.71;46.72
61554;BME280;47425;51.976;5.326;2023-03-20T08:00:16;101772.44;;;17.76;46.66
61554;BME280;47425;51.976;5.326;2023-03-20T08:02:44;101777.75;;;17.76;46.63
61554;BME280;47425;51.976;5.326;2023-03-20T08:05:12;101772.31;;;17.79;46.52
61554;BME280;47425;51.976;5.326;2023-03-20T08:07:38;101783.69;;;17.83;46.39
61554;BME280;47425;51.976;5.326;2023-03-20T08:10:05;101779.28;;;17.82;46.38
61554;BME280;47425;51.976;5.326;2023-03-20T08:12:33;101777.53;;;17.82;46.28
61554;BME280;47425;51.976;5.326;2023-03-20T08:14:59;101778.44;;;17.81;46.28
61554;BME280;47425;51.976;5.326;2023-03-20T08:17:26;101776.56;;;17.85;46.09
61554;BME280;47425;51.976;5.326;2023-03-20T08:19:52;101773.91;;;17.85;46.31
61554;BME280;47425;51.976;5.326;2023-03-20T08:22:22;101775.72;;;17.83;45.86
61554;BME280;47425;51.976;5.326;2023-03-20T08:24:48;101778.59;;;17.76;45.93
61554;BME280;47425;51.976;5.326;2023-03-20T08:27:15;101769.97;;;17.71;46.25
61554;BME280;47425;51.976;5.326;2023-03-20T08:29:43;101780.31;;;17.77;46.08
61554;BME280;47425;51.976;5.326;2023-03-20T08:32:09;101772.38;;;17.77;46.20
61554;BME280;47425;51.976;5.326;2023-03-20T08:34:36;101776.69;;;17.80;45.99
61554;BME280;47425;51.976;5.326;2023-03-20T08:37:02;101776.66;;;17.82;46.08
61554;BME280;47425;51.976;5.326;2023-03-20T08:39:32;101771.78;;;17.69;45.75
61554;BME280;47425;51.976;5.326;2023-03-20T08:41:59;101772.06;;;17.61;46.45
61554;BME280;47425;51.976;5.326;2023-03-20T08:44:26;101777.94;;;17.70;46.33
61554;BME280;47425;51.976;5.326;2023-03-20T08:46:52;101773.53;;;17.70;46.19
61554;BME280;47425;51.976;5.326;2023-03-20T08:49:21;101768.16;;;17.72;46.04
61554;BME280;47425;51.976;5.326;2023-03-20T08:51:48;101778.66;;;17.75;45.92
61554;BME280;47425;51.976;5.326;2023-03-20T08:54:14;101774.16;;;17.77;45.87
61554;BME280;47425;51.976;5.326;2023-03-20T08:56:45;101773.25;;;17.78;45.68
61554;BME280;47425;51.976;5.326;2023-03-20T08:59:11;101776.81;;;17.77;45.80
61554;BME280;47425;51.976;5.326;2023-03-20T09:01:38;101770.88;;;17.70;45.66
61554;BME280;47425;51.976;5.326;2023-03-20T09:04:04;101777.91;;;17.71;45.70
61554;BME280;47425;51.976;5.326;2023-03-20T09:06:34;101786.78;;;17.70;45.53
61554;BME280;47425;51.976;5.326;2023-03-20T09:09:01;101786.97;;;17.64;45.70
61554;BME280;47425;51.976;5.326;2023-03-20T09:11:27;101778.97;;;17.66;45.86
61554;BME280;47425;51.976;5.326;2023-03-20T09:13:56;101786.84;;;17.69;45.79
61554;BME280;47425;51.976;5.326;2023-03-20T09:16:23;101787.69;;;17.69;45.49
61554;BME280;47425;51.976;5.326;2023-03-20T09:19:05;101792.88;;;17.72;45.59
61554;BME280;47425;51.976;5.326;2023-03-20T09:21:31;101794.47;;;17.76;45.73
61554;BME280;47425;51.976;5.326;2023-03-20T09:23:58;101792.53;;;17.82;45.36
61554;BME280;47425;51.976;5.326;2023-03-20T09:26:24;101789.09;;;17.80;45.07
61554;BME280;47425;51.976;5.326;2023-03-20T09:28:51;101792.59;;;17.80;45.40
61554;BME280;47425;51.976;5.326;2023-03-20T09:31:18;101794.34;;;17.81;45.27
61554;BME280;47425;51.976;5.326;2023-03-20T09:33:46;101789.09;;;17.80;45.14
61554;BME280;47425;51.976;5.326;2023-03-20T09:36:12;101785.63;;;17.77;45.41
61554;BME280;47425;51.976;5.326;2023-03-20T09:38:40;101785.50;;;17.81;45.06
61554;BME280;47425;51.976;5.326;2023-03-20T09:41:06;101788.28;;;17.77;45.25
61554;BME280;47425;51.976;5.326;2023-03-20T09:46:46;101783.81;;;17.80;45.07
61554;BME280;47425;51.976;5.326;2023-03-20T09:49:18;101784.59;;;17.82;45.17
61554;BME280;47425;51.976;5.326;2023-03-20T09:51:52;101788.97;;;17.83;44.92
61554;BME280;47425;51.976;5.326;2023-03-20T09:54:23;101789.75;;;17.61;45.16
61554;BME280;47425;51.976;5.326;2023-03-20T09:56:50;101787.09;;;17.61;45.55
61554;BME280;47425;51.976;5.326;2023-03-20T09:59:18;101787.56;;;17.72;45.42
61554;BME280;47425;51.976;5.326;2023-03-20T10:01:48;101785.63;;;17.77;45.12
61554;BME280;47425;51.976;5.326;2023-03-20T10:04:15;101773.84;;;17.86;44.92
61554;BME280;47425;51.976;5.326;2023-03-20T10:06:42;101774.53;;;17.93;44.82
61554;BME280;47425;51.976;5.326;2023-03-20T10:09:14;101780.28;;;18.04;44.84
61554;BME280;47425;51.976;5.326;2023-03-20T10:11:51;101786.56;;;18.02;44.18
61554;BME280;47425;51.976;5.326;2023-03-20T10:14:22;101781.50;;;17.96;44.50
61554;BME280;47425;51.976;5.326;2023-03-20T10:16:57;101775.44;;;17.92;44.86
61554;BME280;47425;51.976;5.326;2023-03-20T10:19:29;101780.53;;;17.98;44.68
61554;BME280;47425;51.976;5.326;2023-03-20T10:21:56;101781.31;;;18.00;44.37
61554;BME280;47425;51.976;5.326;2023-03-20T10:24:28;101780.22;;;18.06;44.15
61554;BME280;47425;51.976;5.326;2023-03-20T10:26:54;101777.41;;;18.10;44.11
61554;BME280;47425;51.976;5.326;2023-03-20T10:29:26;101780.84;;;18.13;44.11
61554;BME280;47425;51.976;5.326;2023-03-20T10:31:59;101773.59;;;18.18;43.90
61554;BME280;47425;51.976;5.326;2023-03-20T10:34:35;101779.81;;;18.17;43.84
61554;BME280;47425;51.976;5.326;2023-03-20T10:37:09;101768.53;;;18.11;43.94
61554;BME280;47425;51.976;5.326;2023-03-20T10:39:44;101774.75;;;18.10;43.87
61554;BME280;47425;51.976;5.326;2023-03-20T10:42:16;101771.41;;;18.05;44.17
61554;BME280;47425;51.976;5.326;2023-03-20T10:44:45;101766.19;;;18.04;44.09
61554;BME280;47425;51.976;5.326;2023-03-20T10:47:17;101764.22;;;18.09;43.88
61554;BME280;47425;51.976;5.326;2023-03-20T10:49:48;101765.94;;;18.10;43.89
61554;BME280;47425;51.976;5.326;2023-03-20T10:52:16;101771.13;;;18.13;43.72
61554;BME280;47425;51.976;5.326;2023-03-20T10:54:44;101763.75;;;18.21;43.57
61554;BME280;47425;51.976;5.326;2023-03-20T10:57:13;101762.78;;;18.24;43.67
61554;BME280;47425;51.976;5.326;2023-03-20T10:59:43;101755.38;;;18.32;43.36
61554;BME280;47425;51.976;5.326;2023-03-20T11:02:15;101762.47;;;18.32;43.72
61554;BME280;47425;51.976;5.326;2023-03-20T11:04:43;101762.78;;;18.24;43.30
61554;BME280;47425;51.976;5.326;2023-03-20T11:07:12;101764.88;;;18.14;43.71
61554;BME280;47425;51.976;5.326;2023-03-20T11:09:38;101761.50;;;18.10;43.79
61554;BME280;47425;51.976;5.326;2023-03-20T11:12:12;101759.84;;;18.08;43.76
61554;BME280;47425;51.976;5.326;2023-03-20T11:14:41;101754.47;;;18.09;43.87
61554;BME280;47425;51.976;5.326;2023-03-20T11:17:11;101759.72;;;18.11;43.57
61554;BME280;47425;51.976;5.326;2023-03-20T11:19:38;101756.22;;;18.10;43.86
61554;BME280;47425;51.976;5.326;2023-03-20T11:22:12;101759.66;;;18.13;43.69
61554;BME280;47425;51.976;5.326;2023-03-20T11:24:50;101755.09;;;18.16;43.55
61554;BME280;47425;51.976;5.326;2023-03-20T11:27:18;101753.56;;;18.10;43.46
61554;BME280;47425;51.976;5.326;2023-03-20T11:29:49;101740.31;;;18.10;43.58
61554;BME280;47425;51.976;5.326;2023-03-20T11:32:19;101734.03;;;18.13;43.67
61554;BME280;47425;51.976;5.326;2023-03-20T11:34:48;101734.09;;;18.11;43.56
61554;BME280;47425;51.976;5.326;2023-03-20T11:37:21;101732.28;;;18.12;43.67
61554;BME280;47425;51.976;5.326;2023-03-20T11:39:55;101729.69;;;18.10;43.35
61554;BME280;47425;51.976;5.326;2023-03-20T11:42:24;101719.09;;;18.10;43.66
61554;BME280;47425;51.976;5.326;2023-03-20T11:44:58;101722.38;;;18.17;43.31
61554;BME280;47425;51.976;5.326;2023-03-20T11:47:25;101715.88;;;18.02;43.72
61554;BME280;47425;51.976;5.326;2023-03-20T11:49:54;101718.28;;;18.08;43.72
61554;BME280;47425;51.976;5.326;2023-03-20T11:52:23;101717.56;;;18.05;43.40
61554;BME280;47425;51.976;5.326;2023-03-20T11:54:52;101718.56;;;18.01;43.78
61554;BME280;47425;51.976;5.326;2023-03-20T11:57:28;101715.00;;;18.02;43.72
61554;BME280;47425;51.976;5.326;2023-03-20T11:59:59;101717.47;;;18.06;43.56
61554;BME280;47425;51.976;5.326;2023-03-20T12:02:26;101715.75;;;18.05;43.60
61554;BME280;47425;51.976;5.326;2023-03-20T12:04:52;101708.59;;;18.07;43.55
61554;BME280;47425;51.976;5.326;2023-03-20T12:07:23;101713.78;;;18.10;43.48
61554;BME280;47425;51.976;5.326;2023-03-20T12:09:52;101708.25;;;18.17;43.18
61554;BME280;47425;51.976;5.326;2023-03-20T12:12:23;101702.03;;;18.18;43.42
61554;BME280;47425;51.976;5.326;2023-03-20T12:14:55;101701.84;;;18.22;43.30
61554;BME280;47425;51.976;5.326;2023-03-20T12:17:33;101707.94;;;18.24;43.19
61554;BME280;47425;51.976;5.326;2023-03-20T12:20:01;101703.69;;;18.20;43.28
61554;BME280;47425;51.976;5.326;2023-03-20T12:22:30;101708.16;;;18.20;43.05
61554;BME280;47425;51.976;5.326;2023-03-20T12:25:00;101708.16;;;18.20;43.18
61554;BME280;47425;51.976;5.326;2023-03-20T12:27:29;101702.78;;;18.21;43.00
61554;BME280;47425;51.976;5.326;2023-03-20T12:30:02;101701.84;;;18.22;43.05
61554;BME280;47425;51.976;5.326;2023-03-20T12:32:32;101697.41;;;18.23;43.05
61554;BME280;47425;51.976;5.326;2023-03-20T12:35:03;101694.00;;;18.19;43.00
61554;BME280;47425;51.976;5.326;2023-03-20T12:37:32;101694.69;;;18.24;43.09
61554;BME280;47425;51.976;5.326;2023-03-20T12:40:00;101696.38;;;18.27;42.95
61554;BME280;47425;51.976;5.326;2023-03-20T12:42:31;101696.38;;;18.27;42.83
61554;BME280;47425;51.976;5.326;2023-03-20T12:45:03;101687.66;;;18.23;43.11
61554;BME280;47425;51.976;5.326;2023-03-20T12:47:37;101685.31;;;18.16;43.14
61554;BME280;47425;51.976;5.326;2023-03-20T12:50:09;101685.31;;;18.16;43.28
61554;BME280;47425;51.976;5.326;2023-03-20T12:52:45;101683.66;;;18.13;43.06
61554;BME280;47425;51.976;5.326;2023-03-20T12:55:20;101681.28;;;18.05;43.31
61554;BME280;47425;51.976;5.326;2023-03-20T12:57:57;101678.34;;;18.13;43.17
61554;BME280;47425;51.976;5.326;2023-03-20T13:00:29;101678.78;;;18.02;43.32
61554;BME280;47425;51.976;5.326;2023-03-20T13:03:08;101675.38;;;17.99;43.74
61554;BME280;47425;51.976;5.326;2023-03-20T13:05:42;101672.59;;;18.02;43.50
61554;BME280;47425;51.976;5.326;2023-03-20T13:08:25;101678.72;;;18.04;43.51
61554;BME280;47425;51.976;5.326;2023-03-20T13:10:59;101667.34;;;18.00;43.52
61554;BME280;47425;51.976;5.326;2023-03-20T13:13:51;101681.50;;;17.99;43.50
61554;BME280;47425;51.976;5.326;2023-03-20T13:16:21;101664.81;;;17.97;43.67